Time;durP1;ratioP1;P1;durP2;ratioP2;P2;SDS_P1;SDS_P2;PMS_P1;PMS_P2;Temp;Humidity;BMP_temperature;BMP_pressure;BME280_temperature;BME280_humidity;BME280_pressure;Samples;Min_cycle;Max_cycle;Signal;HPM_P1;HPM_P2
2023/03/17 00:01:15;;;;;;;15.33;8.00;;;1.80;99.90;;;;;;4956802;28;20569;-88
2023/03/17 00:03:42;;;;;;;16.67;8.60;;;1.80;99.90;;;;;;4956618;28;20074;-88
2023/03/17 00:06:19;;;;;;;13.13;7.87;;;1.80;99.90;;;;;;4957364;28;20027;-88
2023/03/17 00:08:45;;;;;;;14.10;7.70;;;1.80;99.90;;;;;;4956327;28;20049;-88
2023/03/17 00:11:12;;;;;;;11.97;7.90;;;1.80;99.90;;;;;;4956973;28;20023;-89
2023/03/17 00:13:38;;;;;;;12.83;7.27;;;1.80;99.90;;;;;;4956931;28;20050;-89
2023/03/17 00:16:09;;;;;;;15.13;7.40;;;1.70;99.90;;;;;;4957190;28;20206;-88
2023/03/17 00:18:36;;;;;;;13.03;7.70;;;1.70;99.90;;;;;;4956797;28;20722;-88
2023/03/17 00:21:01;;;;;;;12.07;7.57;;;1.70;99.90;;;;;;4956124;28;20023;-88
2023/03/17 00:23:27;;;;;;;11.93;7.83;;;1.70;99.90;;;;;;4956621;28;21049;-88
2023/03/17 00:25:53;;;;;;;11.67;7.60;;;1.70;99.90;;;;;;4957149;28;20038;-88
2023/03/17 00:28:19;;;;;;;9.90;7.40;;;1.60;99.90;;;;;;4957088;28;20027;-88
2023/03/17 00:30:46;;;;;;;11.87;7.33;;;1.60;99.90;;;;;;4957071;28;20042;-88
2023/03/17 00:33:14;;;;;;;15.63;8.00;;;1.60;99.90;;;;;;4956248;28;20485;-88
2023/03/17 00:35:45;;;;;;;11.13;7.53;;;1.60;99.90;;;;;;4956650;28;20126;-88
2023/03/17 00:38:15;;;;;;;12.43;7.27;;;1.60;99.90;;;;;;4955657;28;20495;-88
2023/03/17 00:40:41;;;;;;;13.27;7.13;;;1.50;99.90;;;;;;4956770;28;20045;-88
2023/03/17 00:43:07;;;;;;;11.17;6.47;;;1.50;99.90;;;;;;4956539;28;20047;-88
2023/03/17 00:45:33;;;;;;;13.00;7.50;;;1.50;99.90;;;;;;4956642;28;20035;-88
2023/03/17 00:47:59;;;;;;;12.77;7.23;;;1.50;99.90;;;;;;4955965;28;20027;-88
2023/03/17 00:50:26;;;;;;;16.07;8.43;;;1.50;99.90;;;;;;4955802;28;20046;-88
2023/03/17 00:52:54;;;;;;;12.63;8.27;;;1.40;99.90;;;;;;4955524;28;20034;-88
2023/03/17 00:55:21;;;;;;;11.30;8.23;;;1.40;99.90;;;;;;4956647;28;20042;-88
2023/03/17 00:57:47;;;;;;;12.77;7.80;;;1.40;99.90;;;;;;4955502;28;20031;-88
2023/03/17 01:00:31;;;;;;;14.17;8.40;;;1.40;99.90;;;;;;4956352;28;20027;-88
2023/03/17 01:02:57;;;;;;;15.00;7.70;;;1.30;99.90;;;;;;4957025;28;20074;-88
2023/03/17 01:05:24;;;;;;;14.57;7.87;;;1.30;99.90;;;;;;4959081;28;20646;-88
2023/03/17 01:07:56;;;;;;;12.17;7.57;;;1.30;99.90;;;;;;4958291;28;20042;-88
2023/03/17 01:10:26;;;;;;;12.13;8.07;;;1.20;99.90;;;;;;4958503;28;20035;-88
2023/03/17 01:12:54;;;;;;;12.37;8.20;;;1.20;99.90;;;;;;4958072;28;20035;-88
2023/03/17 01:15:20;;;;;;;12.80;8.30;;;1.20;99.90;;;;;;4959856;28;20137;-87
2023/03/17 01:17:47;;;;;;;12.47;8.63;;;1.20;99.90;;;;;;4958331;28;20042;-87
2023/03/17 01:20:26;;;;;;;11.70;7.90;;;1.20;99.90;;;;;;4957264;28;20115;-87
2023/03/17 01:22:52;;;;;;;10.63;7.57;;;1.20;99.90;;;;;;4958352;28;20043;-88
2023/03/17 01:25:18;;;;;;;10.33;8.17;;;1.20;99.90;;;;;;4956735;28;20042;-88
2023/03/17 01:27:45;;;;;;;11.17;8.03;;;1.20;99.90;;;;;;4954642;28;20027;-88
2023/03/17 01:30:24;;;;;;;12.00;8.10;;;1.10;99.90;;;;;;4956201;28;20047;-88
2023/03/17 01:32:50;;;;;;;12.77;7.70;;;1.10;99.90;;;;;;4955860;28;20034;-88
2023/03/17 01:35:18;;;;;;;13.20;7.70;;;1.10;99.90;;;;;;4955749;28;20494;-87
2023/03/17 01:37:44;;;;;;;12.07;7.67;;;1.10;99.90;;;;;;4954795;28;20490;-87
2023/03/17 01:40:16;;;;;;;15.00;8.63;;;1.00;99.90;;;;;;4955335;28;20031;-88
2023/03/17 01:42:43;;;;;;;12.50;8.13;;;1.00;99.90;;;;;;4954680;28;20514;-87
2023/03/17 01:45:48;;;;;;;14.00;8.60;;;1.00;99.90;;;;;;4955607;28;20827;-88
2023/03/17 01:48:14;;;;;;;11.87;7.53;;;0.90;99.90;;;;;;4954428;28;20022;-88
2023/03/17 01:50:41;;;;;;;13.10;7.63;;;0.90;99.90;;;;;;4955372;28;20807;-88
2023/03/17 01:53:08;;;;;;;11.67;7.23;;;0.90;99.90;;;;;;4953637;28;20038;-88
2023/03/17 01:55:34;;;;;;;15.50;8.00;;;0.90;99.90;;;;;;4955473;28;20038;-88
2023/03/17 01:58:00;;;;;;;15.50;8.83;;;0.80;99.90;;;;;;4954327;28;20039;-88
2023/03/17 02:00:25;;;;;;;14.47;7.73;;;0.80;99.90;;;;;;4955597;28;20058;-88
2023/03/17 02:02:54;;;;;;;11.37;7.50;;;0.80;99.90;;;;;;4954052;28;20038;-88
2023/03/17 02:05:26;;;;;;;11.77;7.07;;;0.80;99.90;;;;;;4955295;28;20063;-88
2023/03/17 02:07:53;;;;;;;14.67;7.73;;;0.80;99.90;;;;;;4954476;28;20112;-88
2023/03/17 02:10:21;;;;;;;10.43;7.20;;;0.70;99.90;;;;;;4954810;28;20019;-88
2023/03/17 02:12:51;;;;;;;12.50;7.17;;;0.70;99.90;;;;;;4954473;28;20031;-88
2023/03/17 02:15:16;;;;;;;13.87;7.70;;;0.70;99.90;;;;;;4955176;28;20138;-87
2023/03/17 02:17:42;;;;;;;12.00;7.50;;;0.60;99.90;;;;;;4954716;28;20066;-88
2023/03/17 02:20:16;;;;;;;11.23;7.30;;;0.60;99.90;;;;;;4954937;28;20022;-87
2023/03/17 02:22:49;;;;;;;10.77;7.10;;;0.60;99.90;;;;;;4954504;28;20074;-88
2023/03/17 02:25:18;;;;;;;13.00;7.57;;;0.60;99.90;;;;;;4955271;28;20173;-88
2023/03/17 02:27:48;;;;;;;11.23;7.07;;;0.60;99.90;;;;;;4954131;28;20042;-88
2023/03/17 02:30:18;;;;;;;11.90;7.37;;;0.60;99.90;;;;;;4954771;28;20109;-88
2023/03/17 02:32:43;;;;;;;10.70;6.77;;;0.50;99.90;;;;;;4954083;28;20062;-87
2023/03/17 02:35:10;;;;;;;11.00;7.37;;;0.50;99.90;;;;;;4954764;28;20111;-88
2023/03/17 02:37:36;;;;;;;14.47;7.67;;;0.50;99.90;;;;;;4954688;28;20042;-88
2023/03/17 02:40:04;;;;;;;12.57;7.83;;;0.50;99.90;;;;;;4954625;28;20482;-88
2023/03/17 02:42:31;;;;;;;12.53;7.73;;;0.50;99.90;;;;;;4954983;28;20319;-88
2023/03/17 02:44:57;;;;;;;10.10;7.50;;;0.50;99.90;;;;;;4958281;28;20055;-88
2023/03/17 02:47:22;;;;;;;10.80;7.50;;;0.50;99.90;;;;;;4957964;28;20165;-88
2023/03/17 02:49:48;;;;;;;13.63;7.20;;;0.50;99.90;;;;;;4958209;28;20034;-88
2023/03/17 02:52:14;;;;;;;10.53;7.73;;;0.50;99.90;;;;;;4957468;28;20030;-88
2023/03/17 02:54:40;;;;;;;14.60;7.83;;;0.50;99.90;;;;;;4957528;28;20070;-88
2023/03/17 02:57:07;;;;;;;13.57;7.50;;;0.50;99.90;;;;;;4958182;28;20034;-87
2023/03/17 02:59:33;;;;;;;14.30;7.50;;;0.50;99.90;;;;;;4957669;28;20066;-87
2023/03/17 03:01:59;;;;;;;12.90;7.93;;;0.50;99.90;;;;;;4958273;28;20063;-88
2023/03/17 03:04:26;;;;;;;12.67;7.50;;;0.60;99.90;;;;;;4957886;28;20039;-88
2023/03/17 03:06:52;;;;;;;17.50;7.60;;;0.60;99.90;;;;;;4956788;28;20038;-88
2023/03/17 03:09:18;;;;;;;11.70;7.83;;;0.60;99.90;;;;;;4957796;28;20023;-88
2023/03/17 03:11:43;;;;;;;11.97;7.97;;;0.70;99.90;;;;;;4957839;28;20038;-88
2023/03/17 03:14:10;;;;;;;11.37;7.37;;;0.70;99.90;;;;;;4957471;28;20058;-87
2023/03/17 03:16:36;;;;;;;12.53;7.20;;;0.70;99.90;;;;;;4958149;28;20390;-88
2023/03/17 03:19:01;;;;;;;14.40;8.33;;;0.70;99.90;;;;;;4957414;28;20031;-88
2023/03/17 03:21:27;;;;;;;13.33;7.70;;;0.70;99.90;;;;;;4957670;28;20665;-87
2023/03/17 03:23:52;;;;;;;12.63;8.47;;;0.70;99.90;;;;;;4957034;28;20031;-88
2023/03/17 03:26:18;;;;;;;12.53;8.50;;;0.70;99.90;;;;;;4957546;28;20608;-88
2023/03/17 03:28:44;;;;;;;12.63;8.73;;;0.70;99.90;;;;;;4957096;28;20054;-88
2023/03/17 03:31:10;;;;;;;14.23;9.17;;;0.70;99.90;;;;;;4957164;28;20047;-88
2023/03/17 03:33:35;;;;;;;12.87;9.37;;;0.70;99.90;;;;;;4957081;28;20478;-88
2023/03/17 03:36:01;;;;;;;13.33;9.60;;;0.70;99.90;;;;;;4958092;28;20061;-88
2023/03/17 03:38:27;;;;;;;13.90;9.23;;;0.80;99.90;;;;;;4957083;28;20062;-88
2023/03/17 03:40:53;;;;;;;15.97;8.93;;;0.70;99.90;;;;;;4957734;28;20070;-88
2023/03/17 03:43:19;;;;;;;12.43;8.87;;;0.80;99.90;;;;;;4956874;28;20043;-88
2023/03/17 03:45:45;;;;;;;12.20;8.47;;;0.80;99.90;;;;;;4957659;28;20025;-88
2023/03/17 03:48:10;;;;;;;11.40;8.30;;;0.80;99.90;;;;;;4956752;28;20031;-88
2023/03/17 03:50:36;;;;;;;15.00;9.70;;;0.80;99.90;;;;;;4957547;28;20101;-88
2023/03/17 03:53:02;;;;;;;14.83;9.10;;;0.80;99.90;;;;;;4955715;28;20038;-88
2023/03/17 03:55:28;;;;;;;13.80;9.03;;;0.90;99.90;;;;;;4956531;28;20034;-88
2023/03/17 03:57:54;;;;;;;13.53;9.47;;;0.90;99.90;;;;;;4956635;28;20431;-88
2023/03/17 04:00:20;;;;;;;12.93;9.03;;;0.90;99.90;;;;;;4957652;28;20031;-88
2023/03/17 04:02:46;;;;;;;12.70;8.97;;;0.90;99.90;;;;;;4956251;28;20039;-88
2023/03/17 04:05:17;;;;;;;16.07;8.97;;;1.00;99.90;;;;;;4957337;28;20054;-88
2023/03/17 04:07:43;;;;;;;14.43;9.13;;;0.90;99.90;;;;;;4956618;28;20556;-88
2023/03/17 04:10:11;;;;;;;15.27;9.10;;;1.00;99.90;;;;;;4957109;28;20077;-88
2023/03/17 04:12:37;;;;;;;13.03;7.33;;;1.00;99.90;;;;;;4956284;28;20026;-88
2023/03/17 04:15:07;;;;;;;14.07;7.70;;;1.00;99.90;;;;;;4957054;28;20185;-88
2023/03/17 04:17:33;;;;;;;11.03;8.30;;;1.00;99.90;;;;;;4956704;28;20033;-88
2023/03/17 04:19:59;;;;;;;11.43;8.10;;;1.00;99.90;;;;;;4956596;28;20394;-88
2023/03/17 04:22:25;;;;;;;10.20;7.53;;;1.00;99.90;;;;;;4955907;28;20039;-88
2023/03/17 04:24:51;;;;;;;16.40;8.93;;;1.00;99.90;;;;;;4956588;28;20023;-88
2023/03/17 04:27:16;;;;;;;12.00;7.50;;;0.90;99.90;;;;;;4956969;28;20042;-88
2023/03/17 04:29:43;;;;;;;12.37;7.53;;;0.90;99.90;;;;;;4956084;28;20026;-88
2023/03/17 04:32:13;;;;;;;12.40;7.30;;;0.90;99.90;;;;;;4956729;28;20027;-88
2023/03/17 04:34:40;;;;;;;10.13;7.70;;;0.90;99.90;;;;;;4956746;28;20059;-88
2023/03/17 04:37:06;;;;;;;10.57;7.50;;;0.90;99.90;;;;;;4956267;28;20150;-88
2023/03/17 04:39:31;;;;;;;14.97;7.17;;;0.90;99.90;;;;;;4956172;28;20038;-88
2023/03/17 04:41:57;;;;;;;9.63;6.50;;;0.90;99.90;;;;;;4956382;28;20042;-88
2023/03/17 04:44:22;;;;;;;16.53;7.47;;;0.80;99.90;;;;;;4955056;28;20088;-88
2023/03/17 04:46:48;;;;;;;10.77;7.20;;;0.80;99.90;;;;;;4955901;28;20089;-88
2023/03/17 04:49:13;;;;;;;12.73;7.80;;;0.80;99.90;;;;;;4956228;28;20031;-88
2023/03/17 04:51:40;;;;;;;14.67;8.57;;;0.80;99.90;;;;;;4956366;28;20471;-87
2023/03/17 04:54:05;;;;;;;11.33;8.00;;;0.70;99.90;;;;;;4955452;28;20033;-88
2023/03/17 04:56:31;;;;;;;12.00;8.37;;;0.70;99.90;;;;;;4956320;28;20012;-88
2023/03/17 04:58:57;;;;;;;14.30;8.27;;;0.60;99.90;;;;;;4955598;28;20118;-88
2023/03/17 05:01:22;;;;;;;11.17;7.73;;;0.60;99.90;;;;;;4956437;28;20046;-88
2023/03/17 05:03:48;;;;;;;11.40;7.63;;;0.60;99.90;;;;;;4954994;28;20504;-88
2023/03/17 05:06:15;;;;;;;13.70;7.67;;;0.50;99.90;;;;;;4956368;28;20114;-89
2023/03/17 05:08:43;;;;;;;11.60;7.23;;;0.50;99.90;;;;;;4956008;28;20107;-88
2023/03/17 05:11:09;;;;;;;13.60;8.23;;;0.50;99.90;;;;;;4957221;28;20035;-80
2023/03/17 05:13:35;;;;;;;10.57;7.63;;;0.50;99.90;;;;;;4956012;28;20046;-87
2023/03/17 05:16:01;;;;;;;12.30;8.13;;;0.40;99.90;;;;;;4956536;28;20738;-87
2023/03/17 05:18:27;;;;;;;12.67;8.23;;;0.40;99.90;;;;;;4955809;28;20030;-87
2023/03/17 05:20:53;;;;;;;17.10;11.30;;;0.40;99.90;;;;;;4955102;28;20401;-87
2023/03/17 05:23:19;;;;;;;17.27;10.90;;;0.40;99.90;;;;;;4956633;28;20042;-87
2023/03/17 05:25:49;;;;;;;12.70;8.83;;;0.40;99.90;;;;;;4956512;28;20034;-87
2023/03/17 05:28:15;;;;;;;11.53;7.90;;;0.40;99.90;;;;;;4955430;28;20042;-87
2023/03/17 05:30:42;;;;;;;15.10;10.63;;;0.50;99.90;;;;;;4956350;28;20055;-87
2023/03/17 05:33:07;;;;;;;11.40;7.63;;;0.40;99.90;;;;;;4955488;28;20062;-87
2023/03/17 05:35:33;;;;;;;10.27;6.93;;;0.50;99.90;;;;;;4956459;28;20602;-87
2023/03/17 05:37:58;;;;;;;12.23;8.47;;;0.50;99.90;;;;;;4954972;28;20045;-87
2023/03/17 05:40:25;;;;;;;15.10;8.63;;;0.50;99.90;;;;;;4955605;28;20110;-88
2023/03/17 05:42:51;;;;;;;11.53;8.07;;;0.60;99.90;;;;;;4954834;28;20666;-87
2023/03/17 05:45:17;;;;;;;16.33;7.00;;;0.60;99.90;;;;;;4956131;28;20041;-87
2023/03/17 05:47:43;;;;;;;9.17;6.83;;;0.60;99.90;;;;;;4954971;28;20042;-87
2023/03/17 05:50:10;;;;;;;11.40;7.20;;;0.60;99.90;;;;;;4955996;28;20031;-87
2023/03/17 05:52:35;;;;;;;10.73;6.83;;;0.70;99.90;;;;;;4955054;28;20103;-87
2023/03/17 05:55:01;;;;;;;10.40;6.73;;;0.80;99.90;;;;;;4956853;28;20155;-85
2023/03/17 05:57:27;;;;;;;8.60;6.80;;;0.80;99.90;;;;;;4954053;28;20415;-81
2023/03/17 05:59:53;;;;;;;10.80;6.97;;;0.80;99.90;;;;;;4953590;28;20039;-81
2023/03/17 06:02:19;;;;;;;9.10;6.37;;;0.90;99.90;;;;;;4954354;28;20054;-87
2023/03/17 06:04:45;;;;;;;12.40;7.23;;;0.90;99.90;;;;;;4954541;28;20028;-87
2023/03/17 06:07:10;;;;;;;13.70;7.30;;;0.90;99.90;;;;;;4953800;28;20042;-87
2023/03/17 06:09:37;;;;;;;15.23;6.93;;;1.00;99.90;;;;;;4955673;28;20031;-92
2023/03/17 06:12:03;;;;;;;11.23;7.47;;;1.00;99.90;;;;;;4958612;28;21328;-90
2023/03/17 06:14:28;;;;;;;14.13;7.80;;;1.10;99.90;;;;;;4958699;28;20062;-91
2023/03/17 06:16:54;;;;;;;17.37;9.53;;;1.10;99.90;;;;;;4957654;28;20074;-91
2023/03/17 06:19:20;;;;;;;10.67;6.60;;;1.10;99.90;;;;;;4961938;28;20094;-91
2023/03/17 06:21:45;;;;;;;13.00;7.00;;;1.10;99.90;;;;;;4962433;28;20577;-91
2023/03/17 06:24:11;;;;;;;13.17;6.60;;;1.10;99.90;;;;;;4959417;28;20039;-90
2023/03/17 06:26:37;;;;;;;11.07;6.80;;;1.10;99.90;;;;;;4961998;28;20067;-90
2023/03/17 06:29:03;;;;;;;10.77;6.90;;;1.10;99.90;;;;;;4959805;28;20041;-88
2023/03/17 06:31:29;;;;;;;10.57;6.93;;;1.10;99.90;;;;;;4958252;28;20096;-88
2023/03/17 06:33:56;;;;;;;10.07;6.00;;;1.20;99.90;;;;;;4958104;28;20530;-89
2023/03/17 06:36:22;;;;;;;9.23;5.87;;;1.20;99.90;;;;;;4959683;28;20038;-89
2023/03/17 06:38:48;;;;;;;12.80;6.17;;;1.20;99.90;;;;;;4957196;28;20182;-89
2023/03/17 06:41:15;;;;;;;9.87;5.90;;;1.20;99.90;;;;;;4959121;28;20034;-93
2023/03/17 06:43:40;;;;;;;13.93;6.20;;;1.30;99.90;;;;;;4958195;28;21241;-89
2023/03/17 06:46:07;;;;;;;21.37;8.07;;;1.30;99.90;;;;;;4959167;28;20043;-89
2023/03/17 06:48:32;;;;;;;13.93;7.00;;;1.30;99.90;;;;;;4958743;28;20130;-87
2023/03/17 06:50:58;;;;;;;9.43;6.23;;;1.40;99.90;;;;;;4959844;28;20031;-86
2023/03/17 06:53:24;;;;;;;12.20;7.00;;;1.50;99.90;;;;;;4958327;28;20027;-86
2023/03/17 06:55:50;;;;;;;9.77;6.60;;;1.50;99.90;;;;;;4958221;28;20603;-86
2023/03/17 06:58:15;;;;;;;11.27;6.10;;;1.60;99.90;;;;;;4957668;28;20043;-88
2023/03/17 07:00:44;;;;;;;14.10;7.23;;;1.70;99.90;;;;;;4956846;28;20090;-86
2023/03/17 07:03:10;;;;;;;14.37;6.83;;;1.80;99.90;;;;;;4957434;28;20101;-86
2023/03/17 07:05:36;;;;;;;10.27;6.63;;;1.80;99.90;;;;;;4957650;28;20023;-86
2023/03/17 07:08:02;;;;;;;12.77;6.47;;;1.90;99.90;;;;;;4955879;28;20034;-86
2023/03/17 07:10:27;;;;;;;9.87;5.70;;;2.00;99.90;;;;;;4955259;28;20023;-86
2023/03/17 07:12:53;;;;;;;10.90;6.23;;;2.10;99.90;;;;;;4956562;28;20035;-87
2023/03/17 07:15:19;;;;;;;17.90;6.43;;;2.20;99.90;;;;;;4958556;28;20082;-86
2023/03/17 07:17:48;;;;;;;12.43;6.40;;;2.30;99.90;;;;;;4957082;28;20508;-87
2023/03/17 07:20:13;;;;;;;10.60;6.73;;;2.40;99.90;;;;;;4958252;28;20037;-86
2023/03/17 07:22:40;;;;;;;12.07;6.97;;;2.50;99.90;;;;;;4957162;28;20038;-86
2023/03/17 07:25:06;;;;;;;15.67;7.87;;;2.60;99.90;;;;;;4957790;28;20043;-86
2023/03/17 07:27:32;;;;;;;10.93;6.60;;;2.70;99.90;;;;;;4957346;28;20032;-86
2023/03/17 07:30:01;;;;;;;17.23;6.93;;;2.90;99.90;;;;;;4957025;28;20046;-86
2023/03/17 07:32:26;;;;;;;10.97;5.57;;;3.00;99.90;;;;;;4956402;28;20034;-86
2023/03/17 07:34:52;;;;;;;19.37;7.00;;;3.10;99.90;;;;;;4956788;28;20138;-86
2023/03/17 07:37:18;;;;;;;16.07;5.93;;;3.30;99.90;;;;;;4956744;28;20030;-86
2023/03/17 07:39:46;;;;;;;12.50;5.83;;;3.40;99.90;;;;;;4955447;28;20035;-86
2023/03/17 07:42:14;;;;;;;10.80;5.50;;;3.50;99.90;;;;;;4957059;28;20043;-86
2023/03/17 07:44:40;;;;;;;9.67;5.80;;;3.70;99.90;;;;;;4957352;28;20660;-86
2023/03/17 07:47:06;;;;;;;14.07;6.13;;;3.70;99.90;;;;;;4956677;28;20034;-86
2023/03/17 07:49:32;;;;;;;10.87;5.77;;;3.80;99.90;;;;;;4957055;28;20051;-86
2023/03/17 07:51:58;;;;;;;14.03;5.70;;;4.00;99.90;;;;;;4957529;28;20026;-86
2023/03/17 07:54:25;;;;;;;12.83;5.33;;;4.10;99.90;;;;;;4957121;28;20031;-86
2023/03/17 07:56:51;;;;;;;11.60;5.90;;;4.20;99.90;;;;;;4957404;28;20027;-86
2023/03/17 07:59:17;;;;;;;12.93;5.20;;;4.40;99.90;;;;;;4956779;28;20030;-86
2023/03/17 08:01:43;;;;;;;13.40;5.97;;;4.50;99.90;;;;;;4956757;28;20030;-86
2023/03/17 08:04:11;;;;;;;13.13;5.33;;;4.70;99.90;;;;;;4957574;28;20043;-86
2023/03/17 08:06:40;;;;;;;12.53;5.50;;;4.80;99.90;;;;;;4959395;28;20063;-86
2023/03/17 08:09:06;;;;;;;22.13;5.60;;;4.90;99.90;;;;;;4958241;28;20037;-86
2023/03/17 08:11:32;;;;;;;10.20;5.43;;;5.10;99.90;;;;;;4958737;28;20050;-85
2023/03/17 08:13:58;;;;;;;17.10;5.77;;;5.20;99.90;;;;;;4957722;28;20095;-86
2023/03/17 08:16:24;;;;;;;12.37;5.60;;;5.20;99.90;;;;;;4959006;28;20034;-86
2023/03/17 08:18:50;;;;;;;8.70;5.53;;;5.30;99.90;;;;;;4957409;28;20027;-86
2023/03/17 08:21:16;;;;;;;8.50;4.90;;;5.40;99.90;;;;;;4958404;28;20548;-86
2023/03/17 08:23:42;;;;;;;11.90;5.50;;;5.50;99.90;;;;;;4955025;28;20039;-85
2023/03/17 08:26:07;;;;;;;13.10;5.07;;;5.70;99.90;;;;;;4956602;28;20042;-86
2023/03/17 08:28:34;;;;;;;10.57;5.10;;;5.80;99.90;;;;;;4956748;28;20065;-85
2023/03/17 08:31:13;;;;;;;11.73;6.30;;;5.90;99.90;;;;;;4956864;28;20054;-85
2023/03/17 08:33:40;;;;;;;13.70;6.23;;;6.00;99.90;;;;;;4955910;28;20022;-86
2023/03/17 08:36:08;;;;;;;9.53;4.90;;;6.10;99.90;;;;;;4955633;28;20061;-86
2023/03/17 08:38:37;;;;;;;11.13;5.17;;;6.30;99.90;;;;;;4955658;28;20138;-86
2023/03/17 08:41:05;;;;;;;16.13;5.63;;;6.50;99.90;;;;;;4955681;28;20045;-86
2023/03/17 08:43:32;;;;;;;16.37;5.50;;;6.70;99.90;;;;;;4955508;28;20054;-86
2023/03/17 08:46:08;;;;;;;13.53;5.33;;;6.80;99.90;;;;;;4956262;28;20172;-86
2023/03/17 08:48:35;;;;;;;13.37;5.57;;;7.00;99.90;;;;;;4955447;28;20038;-86
2023/03/17 08:51:00;;;;;;;8.87;5.20;;;7.10;99.90;;;;;;4955859;28;20069;-86
2023/03/17 08:53:26;;;;;;;10.30;5.57;;;7.20;99.90;;;;;;4955062;28;20185;-86
2023/03/17 08:55:55;;;;;;;11.97;4.67;;;7.30;99.90;;;;;;4955898;28;20371;-86
2023/03/17 08:58:21;;;;;;;11.30;5.03;;;7.40;99.90;;;;;;4955031;28;20490;-86
2023/03/17 09:00:47;;;;;;;11.47;5.00;;;7.70;99.90;;;;;;4955743;28;20078;-86
2023/03/17 09:03:14;;;;;;;12.37;5.17;;;8.00;99.90;;;;;;4955533;28;20067;-85
2023/03/17 09:05:41;;;;;;;8.67;4.97;;;8.20;99.90;;;;;;4956387;28;20077;-86
2023/03/17 09:08:07;;;;;;;9.30;5.03;;;8.40;99.90;;;;;;4955191;28;20045;-86
2023/03/17 09:10:33;;;;;;;7.90;4.90;;;8.60;99.90;;;;;;4955913;28;20023;-85
2023/03/17 09:13:02;;;;;;;12.13;4.50;;;8.70;99.90;;;;;;4955284;28;20030;-85
2023/03/17 09:15:29;;;;;;;9.50;5.60;;;9.00;99.90;;;;;;4955784;28;20698;-85
2023/03/17 09:17:56;;;;;;;10.53;4.70;;;9.20;99.90;;;;;;4954491;28;20024;-86
2023/03/17 09:20:21;;;;;;;12.27;5.50;;;9.20;99.90;;;;;;4954149;28;20038;-85
2023/03/17 09:22:47;;;;;;;12.80;5.13;;;9.30;99.90;;;;;;4954245;28;20039;-86
2023/03/17 09:25:16;;;;;;;12.83;6.10;;;9.50;99.90;;;;;;4950474;28;20038;-85
2023/03/17 09:27:42;;;;;;;9.73;4.67;;;9.50;99.90;;;;;;4946976;28;20038;-86
2023/03/17 09:30:09;;;;;;;8.03;4.57;;;9.70;99.90;;;;;;4951637;28;20070;-86
2023/03/17 09:32:36;;;;;;;10.97;4.37;;;9.80;99.90;;;;;;4952375;28;20089;-86
2023/03/17 09:35:02;;;;;;;11.73;5.03;;;10.00;99.90;;;;;;4949309;28;20039;-87
2023/03/17 09:37:29;;;;;;;16.60;5.77;;;10.20;99.90;;;;;;4950225;28;20050;-86
2023/03/17 09:39:56;;;;;;;13.17;4.70;;;10.40;99.90;;;;;;4955563;28;20102;-85
2023/03/17 09:42:40;;;;;;;14.43;4.80;;;10.50;99.90;;;;;;4954618;28;20161;-85
2023/03/17 09:45:29;;;;;;;16.43;6.17;;;10.60;99.90;;;;;;4954896;28;20764;-86
2023/03/17 09:48:05;;;;;;;9.63;4.73;;;10.80;99.90;;;;;;4954659;28;20673;-85
2023/03/17 09:50:47;;;;;;;10.00;4.33;;;10.90;99.90;;;;;;4954889;28;20434;-85
2023/03/17 09:53:34;;;;;;;12.23;4.60;;;10.90;99.90;;;;;;4952713;28;20104;-85
2023/03/17 09:56:11;;;;;;;7.60;4.50;;;11.10;99.90;;;;;;4954764;28;20042;-85
2023/03/17 09:58:38;;;;;;;11.53;4.83;;;11.20;99.90;;;;;;4954952;28;20109;-85
2023/03/17 10:01:04;;;;;;;9.73;4.30;;;11.30;99.90;;;;;;4954743;28;20027;-85
2023/03/17 10:03:32;;;;;;;12.75;4.30;;;11.30;99.90;;;;;;4954335;28;20066;-85
2023/03/17 10:06:33;;;;;;;12.35;4.00;;;11.50;99.90;;;;;;4955320;28;20050;-85
2023/03/17 10:09:06;;;;;;;9.82;4.00;;;11.80;99.90;;;;;;4941547;28;20035;-85
2023/03/17 10:11:39;;;;;;;8.30;4.00;;;11.90;99.90;;;;;;4954037;28;20094;-85
2023/03/17 10:14:30;;;;;;;7.78;3.40;;;12.10;99.90;;;;;;4953010;28;20207;-85
2023/03/17 10:17:15;;;;;;;8.32;3.47;;;12.20;99.90;;;;;;4954285;28;20038;-85
2023/03/17 10:19:43;;;;;;;8.82;3.33;;;12.40;99.90;;;;;;4954211;28;20538;-85
2023/03/17 10:22:30;;;;;;;7.40;3.25;;;12.70;99.90;;;;;;4952693;28;20027;-85
2023/03/17 10:25:04;;;;;;;6.85;3.13;;;12.80;99.90;;;;;;4951007;28;20047;-82
2023/03/17 10:27:35;;;;;;;17.10;6.47;;;13.00;99.90;;;;;;4953024;28;20029;-83
2023/03/17 10:30:00;;;;;;;7.20;3.47;;;13.10;99.90;;;;;;4953442;28;20282;-83
2023/03/17 10:32:29;;;;;;;11.23;3.58;;;13.30;99.90;;;;;;4953361;28;20061;-83
2023/03/17 10:34:56;;;;;;;4.85;3.22;;;13.40;99.90;;;;;;4954213;28;20035;-83
2023/03/17 10:37:22;;;;;;;6.13;3.25;;;13.40;99.90;;;;;;4954288;28;20032;-83
2023/03/17 10:39:51;;;;;;;4.90;3.00;;;13.30;99.90;;;;;;4955124;28;20022;-83
2023/03/17 10:42:26;;;;;;;7.00;3.42;;;13.30;99.90;;;;;;4971804;28;20027;-83
2023/03/17 10:45:14;;;;;;;9.75;3.08;;;13.40;99.90;;;;;;4954335;28;20580;-83
2023/03/17 10:47:46;;;;;;;6.53;2.80;;;13.50;99.90;;;;;;4954327;28;20038;-83
2023/03/17 10:50:25;;;;;;;8.43;3.20;;;13.70;99.90;;;;;;4954190;28;20043;-82
2023/03/17 10:53:01;;;;;;;10.70;3.58;;;13.90;99.90;;;;;;4953452;28;20058;-82
2023/03/17 10:55:31;;;;;;;7.03;3.00;;;14.10;99.90;;;;;;4954157;28;20486;-82
2023/03/17 10:58:20;;;;;;;10.60;3.15;;;14.10;99.90;;;;;;4953655;28;21472;-83
2023/03/17 11:01:01;;;;;;;8.05;3.22;;;14.20;99.90;;;;;;4954676;28;20030;-82
2023/03/17 11:03:32;;;;;;;11.38;3.45;;;14.30;99.90;;;;;;4954224;28;20720;-83
2023/03/17 11:06:11;;;;;;;9.23;2.90;;;14.50;99.90;;;;;;4957959;28;20110;-82
2023/03/17 11:08:53;;;;;;;9.02;3.03;;;14.50;99.90;;;;;;4957026;28;20077;-83
2023/03/17 11:11:33;;;;;;;14.45;2.92;;;14.70;99.90;;;;;;4956417;28;20110;-82
2023/03/17 11:14:15;;;;;;;6.80;2.67;;;14.80;99.90;;;;;;4956984;28;20109;-82
2023/03/17 11:17:15;;;;;;;8.25;3.13;;;15.00;99.90;;;;;;4958173;28;20023;-82
2023/03/17 11:20:07;;;;;;;7.18;3.10;;;15.00;99.90;;;;;;4957387;28;20035;-82
2023/03/17 11:22:42;;;;;;;6.47;3.03;;;15.00;99.90;;;;;;4957122;28;20126;-82
2023/03/17 11:25:12;;;;;;;10.02;3.05;;;15.00;99.90;;;;;;4957594;28;20038;-82
2023/03/17 11:27:55;;;;;;;8.70;3.80;;;15.10;99.90;;;;;;4956164;28;20035;-82
2023/03/17 11:30:26;;;;;;;9.10;3.20;;;15.00;99.90;;;;;;4957424;28;20794;-82
2023/03/17 11:33:02;;;;;;;8.68;2.72;;;14.90;99.90;;;;;;4956354;28;20030;-82
2023/03/17 11:35:33;;;;;;;5.30;2.35;;;15.00;99.90;;;;;;4957996;28;20043;-82
2023/03/17 11:38:55;;;;;;;6.80;2.63;;;15.20;99.90;;;;;;4955418;28;20042;-83
2023/03/17 11:41:43;;;;;;;8.02;2.92;;;15.30;99.90;;;;;;4913776;29;20036;-83
2023/03/17 11:44:33;;;;;;;6.28;2.42;;;15.50;99.90;;;;;;4914581;29;20071;-83
2023/03/17 11:47:27;;;;;;;4.50;2.20;;;15.60;99.90;;;;;;4952838;28;20039;-83
2023/03/17 11:50:06;;;;;;;6.80;2.20;;;15.70;99.90;;;;;;4957208;28;20022;-82
2023/03/17 11:52:39;;;;;;;6.05;2.78;;;15.80;99.90;;;;;;4956255;28;20058;-83
2023/03/17 11:55:23;;;;;;;6.10;2.65;;;16.00;99.90;;;;;;4957343;28;20038;-83
2023/03/17 11:58:00;;;;;;;6.43;2.47;;;16.20;99.90;;;;;;4955119;28;20138;-83
2023/03/17 12:00:36;;;;;;;7.10;2.60;;;16.50;99.90;;;;;;4956310;28;20023;-83
2023/03/17 12:03:14;;;;;;;8.25;2.33;;;16.80;99.90;;;;;;4955820;28;20118;-83
2023/03/17 12:05:41;;;;;;;3.75;2.10;;;16.90;99.90;;;;;;4956819;28;20073;-83
2023/03/17 12:08:13;;;;;;;7.20;2.03;;;16.90;99.90;;;;;;4956537;28;20039;-86
2023/03/17 12:10:50;;;;;;;5.13;2.08;;;17.00;99.90;;;;;;4953919;28;20034;-87
2023/03/17 12:13:20;;;;;;;8.65;2.10;;;17.10;99.90;;;;;;4955266;28;20039;-87
2023/03/17 12:15:47;;;;;;;6.47;2.67;;;17.10;99.90;;;;;;4955990;28;20056;-87
2023/03/17 12:18:31;;;;;;;10.57;2.50;;;17.10;99.90;;;;;;4954016;28;20023;-82
2023/03/17 12:21:04;;;;;;;4.43;2.50;;;17.30;99.90;;;;;;4955883;28;20035;-82
2023/03/17 12:23:48;;;;;;;8.10;2.40;;;17.30;99.90;;;;;;4955412;28;20076;-82
2023/03/17 12:26:34;;;;;;;4.40;1.98;;;17.30;99.90;;;;;;4955764;28;20054;-83
2023/03/17 12:29:12;;;;;;;7.75;2.30;;;17.20;99.90;;;;;;4956168;28;20513;-83
2023/03/17 12:31:46;;;;;;;5.00;2.45;;;17.20;99.90;;;;;;4956797;28;20148;-83
2023/03/17 12:34:40;;;;;;;6.38;2.42;;;17.30;99.90;;;;;;4956219;28;20363;-83
2023/03/17 12:37:06;;;;;;;4.15;2.17;;;17.40;99.90;;;;;;4956149;28;20042;-83
2023/03/17 12:39:33;;;;;;;6.82;2.67;;;17.50;98.50;;;;;;4956114;28;20034;-83
2023/03/17 12:42:04;;;;;;;4.90;2.60;;;17.40;99.20;;;;;;4956076;28;20031;-82
2023/03/17 12:44:56;;;;;;;6.38;2.35;;;17.60;99.50;;;;;;4955462;28;20045;-82
2023/03/17 12:47:57;;;;;;;3.85;2.60;;;17.50;99.00;;;;;;4955222;28;20026;-82
2023/03/17 12:50:47;;;;;;;5.30;1.98;;;17.60;98.70;;;;;;4955883;28;20038;-82
2023/03/17 12:53:20;;;;;;;4.20;2.40;;;17.50;99.20;;;;;;4955238;28;20046;-82
2023/03/17 12:55:49;;;;;;;7.47;2.15;;;17.40;99.80;;;;;;4955108;28;20022;-82
2023/03/17 12:58:44;;;;;;;5.47;3.10;;;17.40;99.90;;;;;;4951188;28;20038;-82
2023/03/17 13:01:16;;;;;;;6.37;2.50;;;17.40;99.90;;;;;;4954536;28;20027;-82